createdAt,value
2023-01-02T00:00:22.752Z,100786.25
2023-01-02T00:02:49.898Z,100792.34
2023-01-02T00:05:17.168Z,100798.59
2023-01-02T00:07:44.193Z,100790.72
2023-01-02T00:10:11.571Z,100786.38
2023-01-02T00:12:38.612Z,100783.69
2023-01-02T00:15:06.432Z,100775.75
2023-01-02T00:17:33.552Z,100773.09
2023-01-02T00:20:00.593Z,100776.50
2023-01-02T00:22:27.592Z,100766.88
2023-01-02T00:24:54.568Z,100782.84
2023-01-02T00:27:21.569Z,100788.16
2023-01-02T00:29:48.532Z,100788.22
2023-01-02T00:32:16.043Z,100786.28
2023-01-02T00:34:43.010Z,100781.97
2023-01-02T00:37:09.978Z,100788.22
2023-01-02T00:39:37.006Z,100775.69
2023-01-02T00:42:05.406Z,100785.53
2023-01-02T00:44:32.376Z,100797.28
2023-01-02T00:46:59.541Z,100798.97
2023-01-02T00:49:26.601Z,100792.72
2023-01-02T00:51:53.610Z,100790.94
2023-01-02T00:54:20.673Z,100797.13
2023-01-02T00:56:47.625Z,100797.09
2023-01-02T00:59:14.629Z,100797.16
2023-01-02T01:01:41.747Z,100804.34
2023-01-02T01:04:08.970Z,100800.63
2023-01-02T01:06:35.941Z,100802.53
2023-01-02T01:09:03.080Z,100800.66
2023-01-02T01:11:30.418Z,100797.25
2023-01-02T01:13:57.429Z,100788.22
2023-01-02T01:16:25.664Z,100796.25
2023-01-02T01:18:56.685Z,100796.03
2023-01-02T01:21:24.513Z,100790.94
2023-01-02T01:23:53.440Z,100790.19
2023-01-02T01:26:21.302Z,100788.22
2023-01-02T01:28:48.528Z,100783.63
2023-01-02T01:31:17.127Z,100780.13
2023-01-02T01:33:45.532Z,100781.06
2023-01-02T01:36:22.459Z,100786.28
2023-01-02T01:38:49.986Z,100776.75
2023-01-02T01:41:21.580Z,100765.00
2023-01-02T01:43:57.792Z,100775.91
2023-01-02T01:46:43.880Z,100764.94
2023-01-02T01:49:27.313Z,100756.06
2023-01-02T01:51:54.202Z,100761.50
2023-01-02T01:54:37.070Z,100754.44
2023-01-02T01:57:16.644Z,100742.06
2023-01-02T01:59:44.315Z,100746.66
2023-01-02T02:02:11.857Z,100736.69
2023-01-02T02:04:40.165Z,100741.91
2023-01-02T02:07:07.323Z,100753.47
2023-01-02T02:10:01.776Z,100750.78
2023-01-02T02:12:29.928Z,100738.53
2023-01-02T02:14:56.902Z,100735.81
2023-01-02T02:18:07.226Z,100746.25
2023-01-02T02:21:00.724Z,100753.47
2023-01-02T02:24:05.432Z,100745.63
2023-01-02T02:26:47.374Z,100757.91
2023-01-02T02:38:23.306Z,100746.47
2023-01-02T02:41:58.816Z,100724.88
2023-01-02T02:45:06.040Z,100757.00
2023-01-02T02:53:14.629Z,100746.50
2023-01-02T03:16:46.352Z,100749.81
2023-01-02T03:20:15.276Z,100759.56
2023-01-02T03:30:36.096Z,100731.56
2023-01-02T03:34:22.295Z,100733.31
2023-01-02T03:45:33.878Z,100735.19
2023-01-02T03:48:35.985Z,100736.94
2023-01-02T03:54:46.262Z,100748.69
2023-01-02T03:58:29.792Z,100728.00
2023-01-02T04:02:10.933Z,100742.16
2023-01-02T04:05:57.963Z,100752.91
2023-01-02T04:09:51.065Z,100751.88
2023-01-02T04:21:11.107Z,100751.72
2023-01-02T04:45:05.265Z,100746.25
2023-01-02T04:47:32.280Z,100743.09
2023-01-02T04:49:59.292Z,100746.53
2023-01-02T04:52:27.248Z,100735.06
2023-01-02T04:54:55.703Z,100734.03
2023-01-02T04:57:22.818Z,100716.28
2023-01-02T04:59:49.857Z,100713.81
2023-01-02T05:02:17.047Z,100724.97
2023-01-02T05:04:44.140Z,100719.69
2023-01-02T05:07:11.140Z,100727.69
2023-01-02T05:09:38.139Z,100715.81
2023-01-02T05:12:05.335Z,100715.97
2023-01-02T05:14:32.353Z,100708.19
2023-01-02T05:16:59.426Z,100702.81
2023-01-02T05:19:26.398Z,100689.50
2023-01-02T05:22:12.062Z,100681.41
2023-01-02T05:24:39.049Z,100676.63
2023-01-02T05:27:06.057Z,100674.53
2023-01-02T05:29:33.033Z,100680.81
2023-01-02T05:32:00.046Z,100675.53
2023-01-02T05:34:27.089Z,100665.47
2023-01-02T05:36:54.165Z,100669.22
2023-01-02T05:39:21.226Z,100668.38
2023-01-02T05:41:48.251Z,100666.28
2023-01-02T05:44:15.279Z,100667.38
2023-01-02T05:46:42.313Z,100655.66
2023-01-02T05:49:10.772Z,100658.22
2023-01-02T05:51:38.143Z,100655.44
2023-01-02T05:54:05.852Z,100657.16
2023-01-02T05:56:33.287Z,100658.00
2023-01-02T05:59:00.288Z,100658.88
2023-01-02T06:01:30.427Z,100653.31
2023-01-02T06:03:59.670Z,100655.91
2023-01-02T06:06:39.004Z,100661.00
2023-01-02T06:09:08.155Z,100663.66
2023-01-02T06:11:36.901Z,100661.97
2023-01-02T06:14:04.184Z,100665.28
2023-01-02T06:16:31.393Z,100660.75
2023-01-02T06:18:58.595Z,100661.56
2023-01-02T06:21:25.789Z,100662.31
2023-01-02T06:23:57.772Z,100657.75
2023-01-02T06:26:32.717Z,100659.28
2023-01-02T06:29:02.414Z,100667.84
2023-01-02T06:31:29.926Z,100666.22
2023-01-02T06:34:02.596Z,100657.94
2023-01-02T06:36:33.223Z,100659.81
2023-01-02T06:39:00.449Z,100655.09
2023-01-02T06:41:27.507Z,100651.50
2023-01-02T06:43:54.755Z,100653.38
2023-01-02T06:46:23.954Z,100643.03
2023-01-02T06:48:51.669Z,100640.06
2023-01-02T06:51:22.703Z,100637.34
2023-01-02T06:53:50.523Z,100647.22
2023-01-02T06:56:19.861Z,100649.69
2023-01-02T06:58:46.995Z,100658.41
2023-01-02T07:01:20.725Z,100652.94
2023-01-02T07:03:48.207Z,100663.53
2023-01-02T07:06:21.244Z,100648.97
2023-01-02T07:08:48.905Z,100661.47
2023-01-02T07:11:22.724Z,100653.53
2023-01-02T07:13:53.555Z,100642.97
2023-01-02T07:16:22.622Z,100642.97
2023-01-02T07:18:51.909Z,100629.47
2023-01-02T07:21:19.486Z,100631.25
2023-01-02T07:23:47.009Z,100639.53
2023-01-02T07:26:14.779Z,100629.41
2023-01-02T07:28:41.962Z,100627.03
2023-01-02T07:31:14.748Z,100634.28
2023-01-02T22:02:11.162Z,100395.72
2023-01-02T22:04:38.247Z,100386.59
2023-01-02T22:09:52.394Z,100381.19
2023-01-02T22:12:19.428Z,100387.34
2023-01-02T22:14:46.594Z,100390.06
2023-01-02T22:17:13.976Z,100396.16
2023-01-02T22:19:41.089Z,100398.72
2023-01-02T22:22:08.226Z,100386.41
2023-01-02T22:24:40.734Z,100393.59
2023-01-02T22:27:15.674Z,100406.91
2023-01-02T22:30:19.034Z,100405.94
2023-01-02T22:32:33.663Z,100403.00
2023-01-02T22:35:06.364Z,100412.63
2023-01-02T22:37:33.531Z,100412.72
2023-01-02T22:40:01.871Z,100414.41
2023-01-02T22:43:07.452Z,100408.25
2023-01-02T22:45:46.596Z,100415.28
2023-01-02T22:48:25.668Z,100423.84
2023-01-02T22:50:57.056Z,100421.97
2023-01-02T22:53:34.851Z,100430.75
2023-01-02T22:56:11.758Z,100417.59
2023-01-02T22:58:38.797Z,100406.72
2023-01-02T23:01:31.972Z,100425.25
2023-01-02T23:04:00.051Z,100424.44
2023-01-02T23:06:28.044Z,100422.50
2023-01-02T23:08:55.272Z,100438.53
2023-01-02T23:11:23.181Z,100437.50
2023-01-02T23:13:56.389Z,100447.97
2023-01-02T23:16:43.036Z,100436.44
2023-01-02T23:19:16.033Z,100439.16
2023-01-02T23:21:49.518Z,100438.25
2023-01-02T23:24:24.920Z,100447.97
2023-01-02T23:26:55.238Z,100437.41
2023-01-02T23:29:24.796Z,100441.72
2023-01-02T23:31:52.625Z,100442.75
2023-01-02T23:34:26.257Z,100452.25
2023-01-02T23:36:55.514Z,100440.06
2023-01-02T23:39:28.214Z,100438.88
2023-01-02T23:41:55.793Z,100446.00
2023-01-02T23:44:24.504Z,100451.31
2023-01-02T23:46:51.802Z,100457.28
2023-01-02T23:49:18.912Z,100454.75
2023-01-02T23:51:46.761Z,100451.28
2023-01-02T23:54:16.827Z,100444.38
2023-01-02T23:56:47.011Z,100437.41
2023-01-02T23:59:22.229Z,100446.13
